Weather at Sioux Falls Regional Airport / Joe Foss Field

Public forecast

Using degrees Fahrenheit for public forecast. Weather courtesy of forecast.io.

Current aviation weather report (METAR) for Sioux Falls Regional Airport / Joe Foss Field

2024/07/22 00:56 (retrieved 1 hour ago)

KFSD 220056Z 08011G17KT 10SM SCT045 SCT080 OVC240 25/18 A3011 RMK AO2 TSE20 SLP188 T02500178

Closest aviation forecast (TAF) to Sioux Falls Regional Airport / Joe Foss Field

Forecast is more than 6 hours old.

Closest forecast is Offutt Air Force Base, 152.6 nm (282.6 km) SSE.

2024/07/21 18:09 (retrieved 8 hours ago)

TAF KOFF 211800Z 2118/2224 09006KT 9999 SCT030 BKN050 QNH3007INS BECMG 2123/2124 12006KT 9999 SCT040 QNH3008INS BECMG 2205/2206 VRB06KT 9999 VCSH FEW020 SCT040 QNH3008INS BECMG 2209/2210 VRB06KT 8000 BR FEW020 SCT030 QNH3007INS BECMG 2215/2216 23006KT 9999 VCSH FEW080 QNH2998INS TX27/2120Z TN18/2210Z